sensor_id;sensor_type;location;lat;lon;timestamp;P1;durP1;ratioP1;P2;durP2;ratioP2
47413;SDS011;33163;0.000;0.000;2023-02-11T00:02:00;11.02;;;2.53;;
47413;SDS011;33163;0.000;0.000;2023-02-11T00:04:28;13.63;;;3.13;;
47413;SDS011;33163;0.000;0.000;2023-02-11T00:06:55;14.20;;;3.60;;
47413;SDS011;33163;0.000;0.000;2023-02-11T00:09:23;13.68;;;3.10;;
47413;SDS011;33163;0.000;0.000;2023-02-11T00:11:53;14.02;;;3.53;;
47413;SDS011;33163;0.000;0.000;2023-02-11T00:14:20;10.90;;;2.92;;
47413;SDS011;33163;0.000;0.000;2023-02-11T00:16:46;9.82;;;2.50;;
47413;SDS011;33163;0.000;0.000;2023-02-11T00:19:13;13.02;;;3.20;;
47413;SDS011;33163;0.000;0.000;2023-02-11T00:21:40;14.85;;;2.90;;
47413;SDS011;33163;0.000;0.000;2023-02-11T00:24:07;13.63;;;3.30;;
47413;SDS011;33163;0.000;0.000;2023-02-11T00:26:35;11.23;;;3.17;;
47413;SDS011;33163;0.000;0.000;2023-02-11T00:29:02;13.90;;;3.67;;
47413;SDS011;33163;0.000;0.000;2023-02-11T00:31:29;12.73;;;3.50;;
47413;SDS011;33163;0.000;0.000;2023-02-11T00:33:56;13.65;;;2.78;;
47413;SDS011;33163;0.000;0.000;2023-02-11T00:36:24;14.48;;;3.63;;
47413;SDS011;33163;0.000;0.000;2023-02-11T00:38:52;11.98;;;3.10;;
47413;SDS011;33163;0.000;0.000;2023-02-11T00:41:20;10.73;;;2.83;;
47413;SDS011;33163;0.000;0.000;2023-02-11T00:43:49;9.38;;;3.03;;
47413;SDS011;33163;0.000;0.000;2023-02-11T00:46:16;11.77;;;3.05;;
47413;SDS011;33163;0.000;0.000;2023-02-11T00:48:43;11.32;;;2.83;;
47413;SDS011;33163;0.000;0.000;2023-02-11T00:51:09;10.98;;;2.88;;
47413;SDS011;33163;0.000;0.000;2023-02-11T00:53:36;10.95;;;3.50;;
47413;SDS011;33163;0.000;0.000;2023-02-11T00:56:04;8.15;;;2.95;;
47413;SDS011;33163;0.000;0.000;2023-02-11T00:58:31;12.43;;;3.15;;
47413;SDS011;33163;0.000;0.000;2023-02-11T01:00:59;16.02;;;3.60;;
47413;SDS011;33163;0.000;0.000;2023-02-11T01:03:26;7.60;;;2.45;;
47413;SDS011;33163;0.000;0.000;2023-02-11T01:05:53;10.48;;;2.88;;
47413;SDS011;33163;0.000;0.000;2023-02-11T01:08:21;8.82;;;2.60;;
47413;SDS011;33163;0.000;0.000;2023-02-11T01:10:52;9.65;;;3.22;;
47413;SDS011;33163;0.000;0.000;2023-02-11T01:13:20;13.73;;;3.25;;
47413;SDS011;33163;0.000;0.000;2023-02-11T01:15:47;10.52;;;3.00;;
47413;SDS011;33163;0.000;0.000;2023-02-11T01:18:15;9.63;;;2.80;;
47413;SDS011;33163;0.000;0.000;2023-02-11T01:20:42;9.98;;;3.40;;
47413;SDS011;33163;0.000;0.000;2023-02-11T01:23:09;14.68;;;2.97;;
47413;SDS011;33163;0.000;0.000;2023-02-11T01:25:36;9.05;;;2.85;;
47413;SDS011;33163;0.000;0.000;2023-02-11T01:28:02;11.05;;;3.05;;
47413;SDS011;33163;0.000;0.000;2023-02-11T01:30:30;10.10;;;2.88;;
47413;SDS011;33163;0.000;0.000;2023-02-11T01:32:57;9.38;;;3.25;;
47413;SDS011;33163;0.000;0.000;2023-02-11T01:35:25;15.02;;;2.90;;
47413;SDS011;33163;0.000;0.000;2023-02-11T01:37:52;11.45;;;2.80;;
47413;SDS011;33163;0.000;0.000;2023-02-11T01:40:19;10.52;;;3.20;;
47413;SDS011;33163;0.000;0.000;2023-02-11T01:42:45;9.27;;;2.70;;
47413;SDS011;33163;0.000;0.000;2023-02-11T01:48:31;8.30;;;2.70;;
47413;SDS011;33163;0.000;0.000;2023-02-11T01:51:03;13.30;;;3.83;;
47413;SDS011;33163;0.000;0.000;2023-02-11T01:53:33;13.13;;;3.78;;
47413;SDS011;33163;0.000;0.000;2023-02-11T01:56:34;12.30;;;3.33;;
47413;SDS011;33163;0.000;0.000;2023-02-11T01:59:23;10.05;;;2.88;;
47413;SDS011;33163;0.000;0.000;2023-02-11T02:01:57;10.57;;;2.80;;
47413;SDS011;33163;0.000;0.000;2023-02-11T02:04:32;14.27;;;3.30;;
47413;SDS011;33163;0.000;0.000;2023-02-11T02:07:07;12.23;;;3.33;;
47413;SDS011;33163;0.000;0.000;2023-02-11T02:09:38;12.00;;;3.63;;
47413;SDS011;33163;0.000;0.000;2023-02-11T02:12:08;8.68;;;3.15;;
47413;SDS011;33163;0.000;0.000;2023-02-11T02:14:36;12.65;;;3.38;;
47413;SDS011;33163;0.000;0.000;2023-02-11T02:17:04;8.43;;;3.15;;
47413;SDS011;33163;0.000;0.000;2023-02-11T02:19:38;12.20;;;3.35;;
47413;SDS011;33163;0.000;0.000;2023-02-11T02:25:59;10.85;;;3.30;;
47413;SDS011;33163;0.000;0.000;2023-02-11T02:28:48;9.35;;;3.50;;
47413;SDS011;33163;0.000;0.000;2023-02-11T02:31:40;11.63;;;3.17;;
47413;SDS011;33163;0.000;0.000;2023-02-11T02:34:32;11.27;;;3.10;;
47413;SDS011;33163;0.000;0.000;2023-02-11T02:37:07;9.80;;;2.95;;
47413;SDS011;33163;0.000;0.000;2023-02-11T02:39:37;9.68;;;2.90;;
47413;SDS011;33163;0.000;0.000;2023-02-11T02:42:04;9.55;;;3.47;;
47413;SDS011;33163;0.000;0.000;2023-02-11T02:44:32;7.63;;;2.75;;
47413;SDS011;33163;0.000;0.000;2023-02-11T02:46:59;9.32;;;2.78;;
47413;SDS011;33163;0.000;0.000;2023-02-11T02:49:26;11.80;;;3.90;;
47413;SDS011;33163;0.000;0.000;2023-02-11T02:52:09;8.27;;;2.40;;
47413;SDS011;33163;0.000;0.000;2023-02-11T02:54:52;7.78;;;3.00;;
47413;SDS011;33163;0.000;0.000;2023-02-11T03:00:07;10.98;;;2.90;;
47413;SDS011;33163;0.000;0.000;2023-02-11T03:02:44;12.30;;;3.33;;
47413;SDS011;33163;0.000;0.000;2023-02-11T03:05:17;10.45;;;2.70;;
47413;SDS011;33163;0.000;0.000;2023-02-11T03:07:54;12.32;;;3.05;;
47413;SDS011;33163;0.000;0.000;2023-02-11T03:10:24;8.57;;;3.03;;
47413;SDS011;33163;0.000;0.000;2023-02-11T03:12:54;11.05;;;2.80;;
47413;SDS011;33163;0.000;0.000;2023-02-11T03:15:22;13.00;;;3.28;;
47413;SDS011;33163;0.000;0.000;2023-02-11T03:17:52;13.80;;;3.15;;
47413;SDS011;33163;0.000;0.000;2023-02-11T03:20:23;10.60;;;3.22;;
47413;SDS011;33163;0.000;0.000;2023-02-11T03:22:54;12.50;;;3.45;;
47413;SDS011;33163;0.000;0.000;2023-02-11T03:25:25;11.38;;;2.88;;
47413;SDS011;33163;0.000;0.000;2023-02-11T03:27:56;10.48;;;2.95;;
47413;SDS011;33163;0.000;0.000;2023-02-11T03:30:29;8.90;;;3.13;;
47413;SDS011;33163;0.000;0.000;2023-02-11T03:33:00;8.18;;;3.08;;
47413;SDS011;33163;0.000;0.000;2023-02-11T03:35:33;9.70;;;2.72;;
47413;SDS011;33163;0.000;0.000;2023-02-11T03:38:06;8.50;;;3.38;;
47413;SDS011;33163;0.000;0.000;2023-02-11T03:40:38;12.73;;;3.17;;
47413;SDS011;33163;0.000;0.000;2023-02-11T03:43:07;11.38;;;3.45;;
47413;SDS011;33163;0.000;0.000;2023-02-11T03:45:37;10.25;;;2.80;;
47413;SDS011;33163;0.000;0.000;2023-02-11T03:48:05;7.38;;;3.20;;
47413;SDS011;33163;0.000;0.000;2023-02-11T03:50:36;9.27;;;3.30;;
47413;SDS011;33163;0.000;0.000;2023-02-11T03:53:06;9.70;;;3.55;;
47413;SDS011;33163;0.000;0.000;2023-02-11T03:55:35;10.45;;;3.55;;
47413;SDS011;33163;0.000;0.000;2023-02-11T03:58:03;8.80;;;2.97;;
47413;SDS011;33163;0.000;0.000;2023-02-11T04:00:31;9.55;;;2.83;;
47413;SDS011;33163;0.000;0.000;2023-02-11T04:03:00;8.70;;;3.38;;
47413;SDS011;33163;0.000;0.000;2023-02-11T04:05:27;9.45;;;3.03;;
47413;SDS011;33163;0.000;0.000;2023-02-11T04:07:54;7.32;;;2.95;;
47413;SDS011;33163;0.000;0.000;2023-02-11T04:10:22;6.15;;;2.75;;
47413;SDS011;33163;0.000;0.000;2023-02-11T04:12:48;12.85;;;3.65;;
47413;SDS011;33163;0.000;0.000;2023-02-11T04:15:18;9.02;;;3.28;;
47413;SDS011;33163;0.000;0.000;2023-02-11T04:17:44;12.27;;;3.60;;
47413;SDS011;33163;0.000;0.000;2023-02-11T04:20:11;6.10;;;2.55;;
47413;SDS011;33163;0.000;0.000;2023-02-11T04:22:38;11.00;;;3.38;;
47413;SDS011;33163;0.000;0.000;2023-02-11T04:25:06;8.20;;;3.00;;
47413;SDS011;33163;0.000;0.000;2023-02-11T04:27:35;6.43;;;2.85;;
47413;SDS011;33163;0.000;0.000;2023-02-11T04:30:02;12.52;;;3.70;;
47413;SDS011;33163;0.000;0.000;2023-02-11T04:32:32;12.75;;;3.60;;
47413;SDS011;33163;0.000;0.000;2023-02-11T04:34:59;8.40;;;3.30;;
47413;SDS011;33163;0.000;0.000;2023-02-11T04:37:26;11.77;;;2.92;;
47413;SDS011;33163;0.000;0.000;2023-02-11T04:39:53;10.57;;;3.20;;
47413;SDS011;33163;0.000;0.000;2023-02-11T04:42:21;12.18;;;4.05;;
47413;SDS011;33163;0.000;0.000;2023-02-11T04:44:49;10.30;;;3.03;;
47413;SDS011;33163;0.000;0.000;2023-02-11T04:47:18;11.77;;;3.47;;
47413;SDS011;33163;0.000;0.000;2023-02-11T04:49:45;8.95;;;2.97;;
47413;SDS011;33163;0.000;0.000;2023-02-11T04:52:12;7.95;;;3.13;;
47413;SDS011;33163;0.000;0.000;2023-02-11T04:54:39;8.90;;;2.78;;
47413;SDS011;33163;0.000;0.000;2023-02-11T04:57:05;8.88;;;3.35;;
47413;SDS011;33163;0.000;0.000;2023-02-11T04:59:32;7.63;;;2.78;;
47413;SDS011;33163;0.000;0.000;2023-02-11T05:02:00;9.15;;;3.50;;
47413;SDS011;33163;0.000;0.000;2023-02-11T05:04:28;10.93;;;3.08;;
47413;SDS011;33163;0.000;0.000;2023-02-11T05:06:54;16.55;;;4.35;;
47413;SDS011;33163;0.000;0.000;2023-02-11T05:09:21;11.75;;;3.53;;
47413;SDS011;33163;0.000;0.000;2023-02-11T05:11:48;11.50;;;3.40;;
47413;SDS011;33163;0.000;0.000;2023-02-11T05:14:15;10.50;;;3.42;;
47413;SDS011;33163;0.000;0.000;2023-02-11T05:16:41;8.68;;;3.30;;
47413;SDS011;33163;0.000;0.000;2023-02-11T05:19:10;5.82;;;3.38;;
47413;SDS011;33163;0.000;0.000;2023-02-11T05:21:36;7.32;;;3.33;;
47413;SDS011;33163;0.000;0.000;2023-02-11T05:24:03;8.15;;;3.28;;
47413;SDS011;33163;0.000;0.000;2023-02-11T05:26:31;9.32;;;2.92;;
47413;SDS011;33163;0.000;0.000;2023-02-11T05:28:58;13.60;;;3.88;;
47413;SDS011;33163;0.000;0.000;2023-02-11T05:31:24;13.23;;;3.88;;
47413;SDS011;33163;0.000;0.000;2023-02-11T05:33:51;9.30;;;3.58;;
47413;SDS011;33163;0.000;0.000;2023-02-11T05:36:19;13.00;;;3.70;;
47413;SDS011;33163;0.000;0.000;2023-02-11T05:38:46;5.72;;;2.83;;
47413;SDS011;33163;0.000;0.000;2023-02-11T05:41:14;8.45;;;3.08;;
47413;SDS011;33163;0.000;0.000;2023-02-11T05:43:41;9.63;;;3.05;;
47413;SDS011;33163;0.000;0.000;2023-02-11T05:46:08;9.20;;;3.63;;
47413;SDS011;33163;0.000;0.000;2023-02-11T05:48:35;11.55;;;3.03;;
47413;SDS011;33163;0.000;0.000;2023-02-11T05:51:01;7.35;;;2.97;;
47413;SDS011;33163;0.000;0.000;2023-02-11T05:53:32;12.38;;;3.60;;
47413;SDS011;33163;0.000;0.000;2023-02-11T05:55:59;10.15;;;2.95;;
47413;SDS011;33163;0.000;0.000;2023-02-11T05:58:26;7.13;;;3.25;;
47413;SDS011;33163;0.000;0.000;2023-02-11T06:00:53;9.32;;;3.20;;
47413;SDS011;33163;0.000;0.000;2023-02-11T06:03:22;10.57;;;3.53;;
47413;SDS011;33163;0.000;0.000;2023-02-11T06:05:48;9.07;;;3.85;;
47413;SDS011;33163;0.000;0.000;2023-02-11T06:08:18;10.13;;;3.53;;
47413;SDS011;33163;0.000;0.000;2023-02-11T06:10:46;8.32;;;3.20;;
47413;SDS011;33163;0.000;0.000;2023-02-11T06:13:13;9.40;;;3.28;;
47413;SDS011;33163;0.000;0.000;2023-02-11T06:15:42;8.93;;;3.40;;
47413;SDS011;33163;0.000;0.000;2023-02-11T06:18:09;8.32;;;3.45;;
47413;SDS011;33163;0.000;0.000;2023-02-11T06:20:36;9.77;;;3.42;;
47413;SDS011;33163;0.000;0.000;2023-02-11T06:23:04;7.18;;;2.75;;
47413;SDS011;33163;0.000;0.000;2023-02-11T06:25:31;6.00;;;3.05;;
47413;SDS011;33163;0.000;0.000;2023-02-11T06:27:59;9.45;;;3.55;;
47413;SDS011;33163;0.000;0.000;2023-02-11T06:30:26;7.80;;;3.30;;
47413;SDS011;33163;0.000;0.000;2023-02-11T06:32:53;6.78;;;2.80;;
47413;SDS011;33163;0.000;0.000;2023-02-11T06:35:19;9.68;;;3.33;;
47413;SDS011;33163;0.000;0.000;2023-02-11T06:37:46;6.47;;;3.00;;
47413;SDS011;33163;0.000;0.000;2023-02-11T06:40:13;5.30;;;2.40;;
47413;SDS011;33163;0.000;0.000;2023-02-11T06:42:40;6.88;;;3.00;;
47413;SDS011;33163;0.000;0.000;2023-02-11T06:45:11;5.05;;;2.95;;
47413;SDS011;33163;0.000;0.000;2023-02-11T06:47:38;6.97;;;2.97;;
47413;SDS011;33163;0.000;0.000;2023-02-11T06:50:05;7.28;;;2.80;;
47413;SDS011;33163;0.000;0.000;2023-02-11T06:52:35;6.97;;;3.03;;
47413;SDS011;33163;0.000;0.000;2023-02-11T06:55:02;5.85;;;2.55;;
47413;SDS011;33163;0.000;0.000;2023-02-11T06:57:32;8.15;;;3.10;;
47413;SDS011;33163;0.000;0.000;2023-02-11T06:59:59;8.30;;;3.38;;
47413;SDS011;33163;0.000;0.000;2023-02-11T07:02:27;7.95;;;2.80;;
47413;SDS011;33163;0.000;0.000;2023-02-11T07:04:54;6.88;;;3.45;;
47413;SDS011;33163;0.000;0.000;2023-02-11T07:07:23;5.55;;;2.97;;
47413;SDS011;33163;0.000;0.000;2023-02-11T07:09:53;6.70;;;3.03;;
47413;SDS011;33163;0.000;0.000;2023-02-11T07:12:19;7.18;;;3.25;;
47413;SDS011;33163;0.000;0.000;2023-02-11T07:14:46;6.72;;;2.90;;
47413;SDS011;33163;0.000;0.000;2023-02-11T07:17:13;10.32;;;3.60;;
47413;SDS011;33163;0.000;0.000;2023-02-11T07:19:41;7.40;;;3.20;;
47413;SDS011;33163;0.000;0.000;2023-02-11T07:22:08;8.50;;;3.17;;
47413;SDS011;33163;0.000;0.000;2023-02-11T07:24:34;7.20;;;3.30;;
47413;SDS011;33163;0.000;0.000;2023-02-11T07:27:01;10.45;;;3.70;;
47413;SDS011;33163;0.000;0.000;2023-02-11T07:29:29;6.72;;;3.05;;
47413;SDS011;33163;0.000;0.000;2023-02-11T07:31:57;6.40;;;3.00;;
47413;SDS011;33163;0.000;0.000;2023-02-11T07:34:23;4.78;;;2.92;;
47413;SDS011;33163;0.000;0.000;2023-02-11T07:36:52;6.80;;;3.42;;
47413;SDS011;33163;0.000;0.000;2023-02-11T07:39:18;6.35;;;2.90;;
47413;SDS011;33163;0.000;0.000;2023-02-11T07:41:46;5.03;;;3.10;;
47413;SDS011;33163;0.000;0.000;2023-02-11T07:44:13;8.60;;;3.55;;
47413;SDS011;33163;0.000;0.000;2023-02-11T07:46:40;7.78;;;3.65;;
47413;SDS011;33163;0.000;0.000;2023-02-11T07:49:09;5.50;;;3.05;;
47413;SDS011;33163;0.000;0.000;2023-02-11T07:51:36;5.50;;;2.90;;
47413;SDS011;33163;0.000;0.000;2023-02-11T07:54:09;6.20;;;2.72;;
47413;SDS011;33163;0.000;0.000;2023-02-11T07:56:36;7.40;;;3.00;;
47413;SDS011;33163;0.000;0.000;2023-02-11T07:59:06;7.82;;;2.97;;
47413;SDS011;33163;0.000;0.000;2023-02-11T08:01:32;7.30;;;3.25;;
47413;SDS011;33163;0.000;0.000;2023-02-11T08:04:00;8.73;;;3.55;;
47413;SDS011;33163;0.000;0.000;2023-02-11T08:06:28;6.05;;;3.35;;
47413;SDS011;33163;0.000;0.000;2023-02-11T08:08:57;8.60;;;2.63;;
47413;SDS011;33163;0.000;0.000;2023-02-11T08:11:32;6.43;;;3.05;;
47413;SDS011;33163;0.000;0.000;2023-02-11T08:13:59;5.95;;;2.85;;
47413;SDS011;33163;0.000;0.000;2023-02-11T08:16:26;6.78;;;2.85;;
47413;SDS011;33163;0.000;0.000;2023-02-11T08:18:56;4.97;;;2.95;;
47413;SDS011;33163;0.000;0.000;2023-02-11T08:21:26;5.35;;;2.70;;
47413;SDS011;33163;0.000;0.000;2023-02-11T08:23:54;4.93;;;2.80;;
47413;SDS011;33163;0.000;0.000;2023-02-11T08:26:22;6.28;;;2.60;;
47413;SDS011;33163;0.000;0.000;2023-02-11T08:28:52;10.02;;;3.10;;
47413;SDS011;33163;0.000;0.000;2023-02-11T08:31:22;5.63;;;3.28;;
47413;SDS011;33163;0.000;0.000;2023-02-11T08:33:52;8.98;;;3.20;;
47413;SDS011;33163;0.000;0.000;2023-02-11T08:36:22;10.63;;;3.33;;
47413;SDS011;33163;0.000;0.000;2023-02-11T08:38:50;9.80;;;2.90;;
47413;SDS011;33163;0.000;0.000;2023-02-11T08:41:19;5.53;;;2.90;;
47413;SDS011;33163;0.000;0.000;2023-02-11T08:43:46;7.45;;;3.40;;
47413;SDS011;33163;0.000;0.000;2023-02-11T08:46:15;5.43;;;2.70;;
47413;SDS011;33163;0.000;0.000;2023-02-11T08:48:43;6.53;;;2.70;;
47413;SDS011;33163;0.000;0.000;2023-02-11T08:51:12;7.88;;;2.85;;
47413;SDS011;33163;0.000;0.000;2023-02-11T08:53:41;9.32;;;2.78;;
47413;SDS011;33163;0.000;0.000;2023-02-11T08:56:08;6.72;;;2.90;;
47413;SDS011;33163;0.000;0.000;2023-02-11T08:58:36;8.10;;;2.80;;
47413;SDS011;33163;0.000;0.000;2023-02-11T09:01:07;7.30;;;3.38;;
47413;SDS011;33163;0.000;0.000;2023-02-11T09:03:36;9.88;;;3.50;;
47413;SDS011;33163;0.000;0.000;2023-02-11T09:06:05;6.18;;;2.92;;
47413;SDS011;33163;0.000;0.000;2023-02-11T09:08:34;4.57;;;2.70;;
47413;SDS011;33163;0.000;0.000;2023-02-11T09:11:01;11.60;;;3.03;;
47413;SDS011;33163;0.000;0.000;2023-02-11T09:13:28;10.82;;;3.53;;
47413;SDS011;33163;0.000;0.000;2023-02-11T09:15:55;5.32;;;2.33;;
47413;SDS011;33163;0.000;0.000;2023-02-11T09:18:21;6.90;;;2.50;;
47413;SDS011;33163;0.000;0.000;2023-02-11T09:20:52;6.90;;;3.00;;
47413;SDS011;33163;0.000;0.000;2023-02-11T09:23:19;5.05;;;2.65;;
47413;SDS011;33163;0.000;0.000;2023-02-11T09:25:46;7.22;;;2.75;;
47413;SDS011;33163;0.000;0.000;2023-02-11T09:28:12;6.55;;;2.30;;
47413;SDS011;33163;0.000;0.000;2023-02-11T09:30:39;8.32;;;2.65;;
47413;SDS011;33163;0.000;0.000;2023-02-11T09:33:06;12.80;;;2.42;;
47413;SDS011;33163;0.000;0.000;2023-02-11T09:35:33;6.15;;;2.72;;
47413;SDS011;33163;0.000;0.000;2023-02-11T09:38:01;5.20;;;2.65;;
47413;SDS011;33163;0.000;0.000;2023-02-11T09:40:28;4.15;;;2.45;;
47413;SDS011;33163;0.000;0.000;2023-02-11T09:42:56;11.98;;;2.63;;
47413;SDS011;33163;0.000;0.000;2023-02-11T09:45:29;9.85;;;2.30;;
47413;SDS011;33163;0.000;0.000;2023-02-11T09:47:57;9.88;;;2.55;;
47413;SDS011;33163;0.000;0.000;2023-02-11T09:50:28;8.80;;;2.22;;
47413;SDS011;33163;0.000;0.000;2023-02-11T09:52:58;6.20;;;2.40;;
47413;SDS011;33163;0.000;0.000;2023-02-11T09:55:29;6.60;;;2.63;;
47413;SDS011;33163;0.000;0.000;2023-02-11T09:57:59;5.32;;;2.30;;
47413;SDS011;33163;0.000;0.000;2023-02-11T10:00:32;8.20;;;2.53;;
47413;SDS011;33163;0.000;0.000;2023-02-11T10:06:11;11.30;;;2.88;;
47413;SDS011;33163;0.000;0.000;2023-02-11T10:09:00;13.52;;;2.53;;
47413;SDS011;33163;0.000;0.000;2023-02-11T10:11:36;10.18;;;1.92;;
47413;SDS011;33163;0.000;0.000;2023-02-11T10:14:17;6.40;;;2.50;;
47413;SDS011;33163;0.000;0.000;2023-02-11T10:16:56;5.38;;;2.13;;
47413;SDS011;33163;0.000;0.000;2023-02-11T10:19:35;9.55;;;3.10;;
47413;SDS011;33163;0.000;0.000;2023-02-11T10:22:16;8.10;;;2.70;;
47413;SDS011;33163;0.000;0.000;2023-02-11T10:24:50;5.10;;;2.33;;
47413;SDS011;33163;0.000;0.000;2023-02-11T10:27:19;9.40;;;2.15;;
47413;SDS011;33163;0.000;0.000;2023-02-11T10:29:50;12.18;;;2.95;;
47413;SDS011;33163;0.000;0.000;2023-02-11T10:32:29;2.63;;;2.20;;
47413;SDS011;33163;0.000;0.000;2023-02-11T10:35:01;5.10;;;2.08;;
47413;SDS011;33163;0.000;0.000;2023-02-11T10:37:29;6.47;;;2.38;;
47413;SDS011;33163;0.000;0.000;2023-02-11T10:39:58;11.50;;;2.50;;
47413;SDS011;33163;0.000;0.000;2023-02-11T10:42:24;3.08;;;1.90;;
47413;SDS011;33163;0.000;0.000;2023-02-11T10:44:55;5.20;;;2.22;;
47413;SDS011;33163;0.000;0.000;2023-02-11T10:47:25;6.28;;;2.03;;
47413;SDS011;33163;0.000;0.000;2023-02-11T10:49:56;6.97;;;2.10;;
47413;SDS011;33163;0.000;0.000;2023-02-11T10:52:27;4.90;;;2.13;;
47413;SDS011;33163;0.000;0.000;2023-02-11T10:55:04;6.25;;;2.33;;
47413;SDS011;33163;0.000;0.000;2023-02-11T10:57:40;6.03;;;2.60;;
47413;SDS011;33163;0.000;0.000;2023-02-11T11:00:19;2.50;;;1.80;;
47413;SDS011;33163;0.000;0.000;2023-02-11T11:02:53;6.63;;;2.50;;
47413;SDS011;33163;0.000;0.000;2023-02-11T11:05:24;2.92;;;1.90;;
47413;SDS011;33163;0.000;0.000;2023-02-11T11:07:55;7.32;;;1.90;;
47413;SDS011;33163;0.000;0.000;2023-02-11T11:10:27;6.35;;;1.60;;
47413;SDS011;33163;0.000;0.000;2023-02-11T11:13:01;4.97;;;2.05;;
47413;SDS011;33163;0.000;0.000;2023-02-11T11:15:30;5.43;;;2.08;;
47413;SDS011;33163;0.000;0.000;2023-02-11T11:18:08;4.90;;;2.35;;
47413;SDS011;33163;0.000;0.000;2023-02-11T11:20:38;8.07;;;2.47;;
47413;SDS011;33163;0.000;0.000;2023-02-11T11:23:14;7.30;;;1.98;;
47413;SDS011;33163;0.000;0.000;2023-02-11T11:25:56;8.27;;;2.70;;
47413;SDS011;33163;0.000;0.000;2023-02-11T11:28:26;8.85;;;2.30;;
47413;SDS011;33163;0.000;0.000;2023-02-11T11:30:54;4.72;;;2.35;;
47413;SDS011;33163;0.000;0.000;2023-02-11T11:33:24;9.10;;;2.67;;
47413;SDS011;33163;0.000;0.000;2023-02-11T11:35:58;6.00;;;2.63;;
47413;SDS011;33163;0.000;0.000;2023-02-11T11:38:29;4.50;;;1.92;;
47413;SDS011;33163;0.000;0.000;2023-02-11T11:44:00;5.63;;;2.20;;
47413;SDS011;33163;0.000;0.000;2023-02-11T11:46:31;4.75;;;2.00;;
47413;SDS011;33163;0.000;0.000;2023-02-11T11:49:02;4.10;;;2.10;;
47413;SDS011;33163;0.000;0.000;2023-02-11T11:51:45;4.28;;;2.40;;
47413;SDS011;33163;0.000;0.000;2023-02-11T11:54:31;5.68;;;1.83;;
47413;SDS011;33163;0.000;0.000;2023-02-11T11:57:13;4.95;;;2.30;;
47413;SDS011;33163;0.000;0.000;2023-02-11T11:59:43;9.38;;;2.20;;
47413;SDS011;33163;0.000;0.000;2023-02-11T12:02:16;7.20;;;2.28;;
47413;SDS011;33163;0.000;0.000;2023-02-11T12:05:00;4.93;;;2.28;;
47413;SDS011;33163;0.000;0.000;2023-02-11T12:07:38;7.97;;;2.88;;
47413;SDS011;33163;0.000;0.000;2023-02-11T12:10:23;8.82;;;2.50;;
47413;SDS011;33163;0.000;0.000;2023-02-11T12:13:00;5.00;;;2.10;;
47413;SDS011;33163;0.000;0.000;2023-02-11T12:15:35;5.40;;;2.13;;
47413;SDS011;33163;0.000;0.000;2023-02-11T12:18:15;5.72;;;2.42;;
47413;SDS011;33163;0.000;0.000;2023-02-11T12:20:56;6.22;;;2.45;;
47413;SDS011;33163;0.000;0.000;2023-02-11T12:23:50;6.70;;;2.47;;
47413;SDS011;33163;0.000;0.000;2023-02-11T12:26:30;5.80;;;2.30;;
47413;SDS011;33163;0.000;0.000;2023-02-11T12:29:10;5.88;;;2.63;;
47413;SDS011;33163;0.000;0.000;2023-02-11T12:31:47;4.50;;;2.20;;
47413;SDS011;33163;0.000;0.000;2023-02-11T12:34:30;3.67;;;2.50;;
47413;SDS011;33163;0.000;0.000;2023-02-11T12:37:14;8.73;;;2.53;;
47413;SDS011;33163;0.000;0.000;2023-02-11T12:39:49;4.55;;;2.65;;
47413;SDS011;33163;0.000;0.000;2023-02-11T12:42:32;5.00;;;2.40;;
47413;SDS011;33163;0.000;0.000;2023-02-11T12:45:34;6.30;;;2.75;;
47413;SDS011;33163;0.000;0.000;2023-02-11T12:48:17;5.25;;;2.67;;
47413;SDS011;33163;0.000;0.000;2023-02-11T12:50:53;6.47;;;2.58;;
47413;SDS011;33163;0.000;0.000;2023-02-11T12:53:31;6.15;;;2.72;;
47413;SDS011;33163;0.000;0.000;2023-02-11T12:56:11;4.95;;;2.67;;
47413;SDS011;33163;0.000;0.000;2023-02-11T12:58:43;5.05;;;2.08;;
47413;SDS011;33163;0.000;0.000;2023-02-11T13:01:17;5.88;;;2.72;;
47413;SDS011;33163;0.000;0.000;2023-02-11T13:03:47;4.63;;;2.58;;
47413;SDS011;33163;0.000;0.000;2023-02-11T13:06:19;3.75;;;2.40;;
47413;SDS011;33163;0.000;0.000;2023-02-11T13:08:51;5.00;;;2.47;;
47413;SDS011;33163;0.000;0.000;2023-02-11T13:11:23;5.15;;;2.88;;
47413;SDS011;33163;0.000;0.000;2023-02-11T13:13:53;5.65;;;2.22;;
47413;SDS011;33163;0.000;0.000;2023-02-11T13:16:29;7.72;;;2.50;;
47413;SDS011;33163;0.000;0.000;2023-02-11T13:19:02;3.75;;;2.30;;
47413;SDS011;33163;0.000;0.000;2023-02-11T13:21:43;5.55;;;2.40;;
47413;SDS011;33163;0.000;0.000;2023-02-11T13:24:18;5.57;;;2.30;;
47413;SDS011;33163;0.000;0.000;2023-02-11T13:26:53;5.70;;;2.15;;
47413;SDS011;33163;0.000;0.000;2023-02-11T13:29:32;3.38;;;2.03;;
47413;SDS011;33163;0.000;0.000;2023-02-11T13:32:10;4.47;;;2.38;;
47413;SDS011;33163;0.000;0.000;2023-02-11T13:34:53;5.57;;;2.47;;
47413;SDS011;33163;0.000;0.000;2023-02-11T13:37:23;6.43;;;2.37;;
47413;SDS011;33163;0.000;0.000;2023-02-11T13:39:55;5.05;;;1.98;;
47413;SDS011;33163;0.000;0.000;2023-02-11T13:42:23;4.22;;;2.22;;
47413;SDS011;33163;0.000;0.000;2023-02-11T13:44:50;5.97;;;2.22;;
47413;SDS011;33163;0.000;0.000;2023-02-11T13:47:24;5.20;;;2.22;;
47413;SDS011;33163;0.000;0.000;2023-02-11T13:49:54;4.95;;;1.85;;
47413;SDS011;33163;0.000;0.000;2023-02-11T13:52:22;2.72;;;1.70;;
47413;SDS011;33163;0.000;0.000;2023-02-11T13:54:52;4.47;;;2.13;;
47413;SDS011;33163;0.000;0.000;2023-02-11T13:57:24;4.00;;;1.90;;
47413;SDS011;33163;0.000;0.000;2023-02-11T14:00:05;4.53;;;2.00;;
47413;SDS011;33163;0.000;0.000;2023-02-11T14:06:14;4.65;;;2.42;;
47413;SDS011;33163;0.000;0.000;2023-02-11T14:09:07;4.60;;;1.73;;
47413;SDS011;33163;0.000;0.000;2023-02-11T14:11:50;5.95;;;2.33;;
47413;SDS011;33163;0.000;0.000;2023-02-11T14:14:20;4.68;;;2.20;;
47413;SDS011;33163;0.000;0.000;2023-02-11T14:19:56;4.72;;;2.60;;
47413;SDS011;33163;0.000;0.000;2023-02-11T14:22:25;9.18;;;2.70;;
47413;SDS011;33163;0.000;0.000;2023-02-11T14:24:55;8.95;;;2.95;;
47413;SDS011;33163;0.000;0.000;2023-02-11T14:30:22;9.70;;;2.95;;
47413;SDS011;33163;0.000;0.000;2023-02-11T14:33:00;6.78;;;2.97;;
47413;SDS011;33163;0.000;0.000;2023-02-11T14:35:46;6.50;;;2.67;;
47413;SDS011;33163;0.000;0.000;2023-02-11T14:38:28;5.38;;;2.47;;
47413;SDS011;33163;0.000;0.000;2023-02-11T14:41:05;3.88;;;2.83;;
47413;SDS011;33163;0.000;0.000;2023-02-11T14:43:37;6.68;;;3.30;;
47413;SDS011;33163;0.000;0.000;2023-02-11T14:46:07;5.28;;;2.88;;
47413;SDS011;33163;0.000;0.000;2023-02-11T14:48:35;3.65;;;2.45;;
47413;SDS011;33163;0.000;0.000;2023-02-11T14:51:06;4.50;;;2.30;;
47413;SDS011;33163;0.000;0.000;2023-02-11T14:53:35;5.63;;;2.42;;
47413;SDS011;33163;0.000;0.000;2023-02-11T14:56:14;5.63;;;2.30;;
47413;SDS011;33163;0.000;0.000;2023-02-11T14:58:45;8.27;;;2.47;;
47413;SDS011;33163;0.000;0.000;2023-02-11T15:01:21;4.05;;;2.25;;
47413;SDS011;33163;0.000;0.000;2023-02-11T15:03:52;6.32;;;2.60;;
47413;SDS011;33163;0.000;0.000;2023-02-11T15:06:22;3.92;;;1.80;;
47413;SDS011;33163;0.000;0.000;2023-02-11T15:08:52;3.40;;;2.17;;
47413;SDS011;33163;0.000;0.000;2023-02-11T15:11:21;5.22;;;2.60;;
47413;SDS011;33163;0.000;0.000;2023-02-11T15:13:50;6.70;;;2.20;;
47413;SDS011;33163;0.000;0.000;2023-02-11T15:16:18;4.32;;;2.22;;
47413;SDS011;33163;0.000;0.000;2023-02-11T15:18:49;6.13;;;2.40;;
47413;SDS011;33163;0.000;0.000;2023-02-11T15:21:19;4.85;;;2.85;;
47413;SDS011;33163;0.000;0.000;2023-02-11T15:23:54;5.53;;;2.05;;
47413;SDS011;33163;0.000;0.000;2023-02-11T15:26:22;5.82;;;1.95;;
47413;SDS011;33163;0.000;0.000;2023-02-11T15:28:52;4.63;;;2.25;;
47413;SDS011;33163;0.000;0.000;2023-02-11T15:31:21;3.35;;;1.70;;
47413;SDS011;33163;0.000;0.000;2023-02-11T15:33:49;2.72;;;1.90;;
47413;SDS011;33163;0.000;0.000;2023-02-11T15:36:17;6.30;;;2.33;;
47413;SDS011;33163;0.000;0.000;2023-02-11T15:38:46;4.07;;;2.25;;
47413;SDS011;33163;0.000;0.000;2023-02-11T15:41:43;4.07;;;2.13;;
47413;SDS011;33163;0.000;0.000;2023-02-11T15:44:25;5.28;;;2.28;;
47413;SDS011;33163;0.000;0.000;2023-02-11T15:46:53;5.60;;;1.80;;